• Join FlightAware (Why Join?)
  • Login
  • US Flag 
06:11AM EDT


 

Airport Tracker/Info


-or-


 

Live Flight TrackerFlight Track Log ✈ AAL1862 ✈ 06-Jul-2014 ✈ KCLT - KORD

Flight Track Log - Related Links

Times and Time Zones

All times are in EDT time to prevent confusion due to time zone crossing. See the AAL1862 flight status page for this flight to view local times or setup timezone preferences in your user account.

Time Position Orientation Groundspeed Altitude Reporting Facility
EDT Latitude Longitude Course Direction KTS MPH feet Rate Location/Type
12:09PM 35.1828 -80.9511 323° Northwest 171 197 1,900  Level Atlanta Center
12:10PM 35.1433 -80.9528 182° South 197 227 2,900 1,500 Climbing Atlanta Center
12:11PM 35.0919 -80.9903 211° Southwest 277 319 4,600 2,340 Climbing Atlanta Center
12:12PM 35.0922 -81.0842 270° West 278 320 7,500 2,460 Climbing Atlanta Center
12:12PM 35.0931 -81.1197 272° West 271 312 7,800 2,460 Climbing Atlanta Center
12:13PM 35.6163 -81.3183 323° Northwest  Level Estimated
12:13PM 35.1153 -81.1722 297° West 282 325 10,000  Level Atlanta Center
12:13PM 35.1242 -81.2047 288° West 288 331 10,200 1,320 Climbing Atlanta Center
12:14PM 35.7168 -81.4111 323° Northwest  Level Estimated
12:14PM 35.2061 -81.2250 349° North 333 383 11,700  Level Atlanta Center
12:15PM 35.8172 -81.5042 323° Northwest  Level Estimated
12:15PM 35.2911 -81.2042 11° North 349 402 13,700  Level Atlanta Center
12:16PM 35.3514 -81.0978 55° Northeast 332 382 15,300 1,560 Climbing Atlanta Center
12:22PM 35.8734 -81.4211 321° Northwest 419 482 24,400 1,500 Climbing FlightAware ADS-B (KINT)
12:22PM 35.9192 -81.4666 321° Northwest 426 490 24,900 1,140 Climbing FlightAware ADS-B (KINT)
12:23PM 35.9655 -81.5128 321° Northwest 428 493 25,600 960 Climbing FlightAware ADS-B (KINT)
12:24PM 36.0808 -81.6264 321° Northwest 431 496 26,700 720 Climbing Indianapolis Center
12:25PM 36.1781 -81.7228 321° Northwest 440 506 27,400 900 Climbing Indianapolis Center
12:26PM 36.2775 -81.8222 321° Northwest 454 522 28,600 1,080 Climbing Indianapolis Center
12:27PM 36.3758 -81.9228 321° Northwest 454 522 29,700 1,140 Climbing Indianapolis Center
12:28PM 36.4900 -82.0381 321° Northwest 454 522 31,000 1,140 Climbing Indianapolis Center
12:29PM 36.5875 -82.1364 321° Northwest 454 522 32,100 1,080 Climbing Indianapolis Center
12:30PM 36.6833 -82.2336 321° Northwest 450 518 33,300 600 Climbing Indianapolis Center
12:32PM 36.8711 -82.4258 326° Northwest 441 507 34,000 180 Climbing Indianapolis Center
12:33PM 36.9647 -82.5211 321° Northwest 441 507 34,000  Level Indianapolis Center
12:35PM 37.0722 -82.6331 320° Northwest 439 505 34,000  Level Indianapolis Center
12:36PM 37.1644 -82.7272 321° Northwest 436 502 34,000  Level Indianapolis Center
12:41PM 37.6872 -83.2759 320° Northwest 415 478 34,000  Level FlightAware ADS-B (KBRY)
12:43PM 37.8061 -83.4019 320° Northwest 416 479 34,000  Level Indianapolis Center
12:49PM 38.3512 -83.9499 328° Northwest 432 497 34,000  Level FlightAware ADS-B (KPMH)
12:49PM 38.4191 -84.0027 329° Northwest 434 499 34,000 60 Level FlightAware ADS-B (KPMH)
12:50PM 38.4706 -84.0429 329° Northwest 434 499 34,100 60 Climbing FlightAware ADS-B (KPMH)
12:50PM 38.5186 -84.0805 328° Northwest 435 501 34,100  Level FlightAware ADS-B (KPMH)
12:51PM 38.5789 -84.1278 329° Northwest 434 499 34,100 -120 Level FlightAware ADS-B (KPMH)
12:51PM 38.6440 -84.1791 328° Northwest 433 498 34,000 -120 Descending FlightAware ADS-B (KPMH)
12:52PM 38.6960 -84.2198 328° Northwest 432 497 34,000  Level FlightAware ADS-B (KPMH)
12:53PM 38.7655 -84.2745 328° Northwest 431 496 34,000  Level FlightAware ADS-B (KPMH)
12:53PM 38.8157 -84.3141 328° Northwest 432 497 34,000  Level FlightAware ADS-B (KPMH)
12:54PM 38.8646 -84.3527 328° Northwest 432 497 34,000  Level FlightAware ADS-B (KPMH)
12:54PM 38.9331 -84.4070 328° Northwest 433 498 34,000 -420 Level FlightAware ADS-B (KPMH)
12:55PM 38.9890 -84.4516 328° Northwest 432 497 33,500 -840 Descending FlightAware ADS-B (KBRY)
12:56PM 38.8994 -84.3803 328° Northwest 432 497 33,000 -420 Descending FlightAware ADS-B (KCVG)
12:56PM 39.1253 -84.5611 319° Northwest 433 498 33,000 -480 Level Indianapolis Center
12:57PM 39.1237 -84.5589 328° Northwest 425 489 32,400 -780 Descending FlightAware ADS-B (KCVG)
12:57PM 39.2347 -84.6472 329° Northwest 434 499 32,200 -900 Descending Indianapolis Center
12:58PM 39.2929 -84.6943 328° Northwest 426 490 31,600 -1,020 Descending FlightAware ADS-B (KCVG)
12:58PM 39.3342 -84.7283 328° Northwest 423 487 31,200 -1,020 Descending Indianapolis Center
12:58PM 39.3545 -84.7439 328° Northwest 434 499 31,000 -240 Descending FlightAware ADS-B (KCVG)
12:59PM 39.4372 -84.8106 328° Northwest 427 491 31,000 -900 Level Indianapolis Center
01:01PM 39.6494 -84.9822 328° Northwest 429 494 28,400 -1,020 Descending Indianapolis Center
01:02PM 39.6047 -85.0308 319° Northwest  Level Estimated
01:02PM 39.7483 -85.0622 328° Northwest 424 488 28,000  Level Indianapolis Center
01:03PM 39.8464 -85.1433 328° Northwest 424 488 27,900 -540 Descending Indianapolis Center
01:05PM 39.9444 -85.2231 328° Northwest 423 487 26,900 -960 Descending Indianapolis Center
01:06PM 40.0394 -85.3006 328° Northwest 413 475 26,000 -480 Descending Indianapolis Center
01:07PM 40.1503 -85.3944 327° Northwest 404 465 26,000  Level Indianapolis Center
01:09PM 40.3356 -85.5481 328° Northwest 401 461 26,000 -120 Level Indianapolis Center
01:10PM 40.4289 -85.6250 328° Northwest 400 460 25,800 -480 Descending Indianapolis Center
01:15PM 41.0102 -85.9076 340° North 381 438 23,000 -420 Descending FlightAware ADS-B (KMDW)
01:17PM 41.1119 -86.0367 340° North 380 437 23,000 -1,020 Level Indianapolis Center
01:23PM 41.4709 -86.7386 334° Northwest 369 425 16,000 -1,320 Descending FlightAware ADS-B (KMDW)
01:23PM 41.5126 -86.7662 338° Northwest 368 423 14,700 -2,160 Descending FlightAware ADS-B (KMDW)
01:24PM 41.5907 -86.7865 356° North 359 413 13,400 -1,920 Descending FlightAware ADS-B (KMDW)
01:24PM 41.6380 -86.7914 356° North 354 407 12,400 -1,200 Descending FlightAware ADS-B (KMDW)
01:25PM 41.7059 -86.7997 354° North 349 402 12,000 -240 Descending FlightAware ADS-B (KMDW)
01:26PM 41.7865 -86.8117 351° North 347 399 12,100  Climbing FlightAware ADS-B (KMDW)
01:27PM 41.8500 -86.8266 348° North 351 404 12,000 -120 Descending FlightAware ADS-B (KMDW)
01:27PM 41.8667 -86.8343 334° Northwest 346 398 12,000 -600 Level FlightAware ADS-B (KPWK)
01:27PM 41.8805 -86.8467 320° Northwest 341 392 11,800 -1,320 Descending FlightAware ADS-B (KMDW)
01:27PM 41.8877 -86.8567 307° West 336 387 11,600 -1,860 Descending FlightAware ADS-B (KMDW)
01:28PM 41.9120 -86.9175 296° West 331 381 10,600 -1,560 Descending FlightAware ADS-B (KMDW)
01:28PM 41.9323 -86.9724 297° West 332 382 10,000 -420 Descending FlightAware ADS-B (KMDW)
01:29PM 41.9639 -87.0567 297° West 329 379 10,100 60 Climbing FlightAware ADS-B (KMDW)
01:29PM 41.9792 -87.1185 278° West 297 342 10,100 -240 Level FlightAware ADS-B (KMDW)
01:30PM 41.9811 -87.1550 272° West 271 312 9,900 -1,200 Descending FlightAware ADS-B (KMDW)
01:30PM 41.9816 -87.1878 271° West 266 306 9,300 -1,440 Descending FlightAware ADS-B (KMDW)
01:30PM 41.9820 -87.2208 271° West 269 310 9,000 -480 Descending FlightAware ADS-B (KMDW)
01:31PM 41.9821 -87.2514 270° West 272 313 9,000  Level FlightAware ADS-B (KMDW)
01:31PM 41.9821 -87.2899 270° West 272 313 9,000 -360 Level FlightAware ADS-B (KMDW)
01:31PM 41.9823 -87.3230 270° West 270 311 8,800 -780 Descending FlightAware ADS-B (KMDW)
01:32PM 41.9825 -87.3556 270° West 267 307 8,500 -1,080 Descending FlightAware ADS-B (KMDW)
01:32PM 41.9828 -87.3884 271° West 261 300 8,100 -1,680 Descending FlightAware ADS-B (KMDW)
01:32PM 41.9830 -87.4208 270° West 259 298 7,400 -1,800 Descending FlightAware ADS-B (KMDW)
01:33PM 41.9831 -87.4539 270° West 253 291 6,900 -1,320 Descending FlightAware ADS-B (KMDW)
01:33PM 41.9832 -87.4836 270° West 232 267 6,500 -1,440 Descending FlightAware ADS-B (KMDW)
01:33PM 41.9833 -87.5106 270° West 214 246 6,000 -1,080 Descending FlightAware ADS-B (KMDW)
01:35PM 41.9834 -87.5810 270° West 168 193 5,100 -900 Descending FlightAware ADS-B (KMDW)
01:35PM 41.9835 -87.6019 270° West 164 189 4,800 -960 Descending FlightAware ADS-B (KMDW)
01:35PM 41.9836 -87.6217 270° West 169 194 4,500 -840 Descending FlightAware ADS-B (KMDW)
01:35PM 41.9836 -87.6393 270° West 170 196 4,300 -840 Descending FlightAware ADS-B (KORD)
01:36PM 41.9837 -87.6600 270° West 172 198 4,000 -900 Descending FlightAware ADS-B (KORD)
01:36PM 41.9836 -87.6812 270° West 176 203 3,700 -1,080 Descending FlightAware ADS-B (KORD)
01:36PM 41.9836 -87.7038 271° West 176 203 3,300 -1,080 Descending FlightAware ADS-B (KORD)
01:37PM 41.9837 -87.7250 270° West 182 209 3,000 -900 Descending FlightAware ADS-B (KORD)
01:37PM 41.9838 -87.7499 270° West 182 209 2,700 -840 Descending FlightAware ADS-B (KORD)
01:37PM 41.9838 -87.7663 270° West 176 203 2,500 -1,020 Descending FlightAware ADS-B (KORD)
01:38PM 41.9839 -87.7961 270° West 162 186 2,000 -1,080 Descending FlightAware ADS-B (KMDW)
01:38PM 41.9839 -87.8152 270° West 147 169 1,700 -780 Descending FlightAware ADS-B (KMDW)
01:38PM 41.9839 -87.8340 270° West 145 167 1,500 -720 Descending FlightAware ADS-B (KMDW)
01:39PM 41.9840 -87.8602 270° West 145 167 1,100 -720 Descending FlightAware ADS-B (KMDW)
01:39PM 41.9839 -87.8784 270° West 143 165 900 -600 Descending FlightAware ADS-B (KMDW)